createdAt,value
2023-02-01T00:01:34.109Z,101667.72
2023-02-01T00:04:04.167Z,101661.38
2023-02-01T00:06:32.796Z,101665.09
2023-02-01T00:09:01.356Z,101656.75
2023-02-01T00:11:29.982Z,101649.94
2023-02-01T00:13:59.149Z,101644.25
2023-02-01T00:16:29.841Z,101646.16
2023-02-01T00:19:01.413Z,101645.69
2023-02-01T00:21:32.078Z,101641.34
2023-02-01T00:24:01.305Z,101650.50
2023-02-01T00:26:34.264Z,101646.22
2023-02-01T00:29:03.762Z,101644.69
2023-02-01T00:31:32.553Z,101645.84
2023-02-01T00:34:01.285Z,101630.91
2023-02-01T00:36:31.602Z,101629.00
2023-02-01T00:39:00.181Z,101638.41
2023-02-01T00:41:29.458Z,101619.91
2023-02-01T00:43:58.122Z,101612.81
2023-02-01T00:46:27.496Z,101595.47
2023-02-01T00:48:56.520Z,101590.00
2023-02-01T00:51:27.640Z,101583.69
2023-02-01T00:53:57.738Z,101578.25
2023-02-01T00:56:28.473Z,101587.72
2023-02-01T00:58:57.116Z,101600.59
2023-02-01T01:01:26.996Z,101606.00
2023-02-01T01:03:56.964Z,101614.72
2023-02-01T01:06:27.299Z,101620.22
2023-02-01T01:08:58.474Z,101622.75
2023-02-01T01:11:30.751Z,101627.97
2023-02-01T01:14:01.284Z,101627.59
2023-02-01T01:16:31.811Z,101625.56
2023-02-01T01:19:01.278Z,101624.13
2023-02-01T01:21:30.816Z,101628.63
2023-02-01T01:24:00.911Z,101625.28
2023-02-01T01:26:30.982Z,101623.88
2023-02-01T01:29:00.745Z,101623.03
2023-02-01T01:31:30.136Z,101628.47
2023-02-01T01:34:00.509Z,101627.41
2023-02-01T01:36:30.341Z,101618.59
2023-02-01T01:39:00.335Z,101622.56
2023-02-01T01:41:33.026Z,101633.91
2023-02-01T01:44:03.266Z,101641.88
2023-02-01T01:46:33.703Z,101626.47
2023-02-01T01:49:07.693Z,101629.66
2023-02-01T01:51:41.076Z,101607.13
2023-02-01T01:54:17.205Z,101603.28
2023-02-01T01:56:48.316Z,101603.47
2023-02-01T01:59:17.566Z,101608.59
2023-02-01T02:01:47.541Z,101597.00
2023-02-01T02:04:16.726Z,101600.97
2023-02-01T02:06:52.139Z,101602.72
2023-02-01T02:09:22.102Z,101593.31
2023-02-01T02:11:51.198Z,101593.78
2023-02-01T02:14:23.071Z,101604.31
2023-02-01T02:17:26.313Z,101592.50
2023-02-01T02:20:32.588Z,101590.44
2023-02-01T02:23:32.653Z,101584.91
2023-02-01T02:26:34.257Z,101584.00
2023-02-01T02:29:38.347Z,101591.31
2023-02-01T02:32:37.333Z,101590.97
2023-02-01T02:35:12.957Z,101580.13
2023-02-01T02:37:45.251Z,101592.66
2023-02-01T02:40:21.988Z,101575.06
2023-02-01T02:43:17.953Z,101584.06
2023-02-01T02:46:10.803Z,101568.91
2023-02-01T02:48:46.738Z,101566.41
2023-02-01T02:51:40.663Z,101573.16
2023-02-01T02:54:30.303Z,101563.88
2023-02-01T02:57:18.890Z,101568.81
2023-02-01T03:00:07.624Z,101565.09
2023-02-01T03:02:55.108Z,101573.34
2023-02-01T03:05:23.724Z,101571.69
2023-02-01T03:08:00.201Z,101570.06
2023-02-01T03:10:37.800Z,101561.25
2023-02-01T03:13:10.933Z,101559.66
2023-02-01T03:15:43.804Z,101550.03
2023-02-01T03:18:17.398Z,101553.22
2023-02-01T03:20:50.082Z,101545.09
2023-02-01T03:23:22.852Z,101539.47
2023-02-01T03:25:54.381Z,101544.56
2023-02-01T03:28:27.620Z,101531.38
2023-02-01T03:30:56.923Z,101536.66
2023-02-01T03:33:27.822Z,101536.84
2023-02-01T03:36:08.636Z,101543.22
2023-02-01T03:38:45.454Z,101536.88
2023-02-01T03:41:20.745Z,101538.38
2023-02-01T03:43:55.500Z,101538.06
2023-02-01T03:46:33.654Z,101535.69
2023-02-01T03:49:05.403Z,101527.50
2023-02-01T03:51:35.032Z,101521.25
2023-02-01T03:54:08.790Z,101530.72
2023-02-01T03:56:41.610Z,101524.41
2023-02-01T03:59:11.276Z,101515.75
2023-02-01T04:01:39.878Z,101523.91
2023-02-01T04:04:10.342Z,101518.88
2023-02-01T04:06:38.981Z,101508.25
2023-02-01T04:09:08.929Z,101500.03
2023-02-01T04:11:37.519Z,101491.03
2023-02-01T04:14:06.121Z,101488.84
2023-02-01T04:16:34.920Z,101492.72
2023-02-01T04:19:03.963Z,101502.66
2023-02-01T04:21:32.613Z,101495.84
2023-02-01T04:24:01.169Z,101500.53
2023-02-01T04:26:31.227Z,101508.91
2023-02-01T04:28:59.850Z,101517.53
2023-02-01T04:31:28.643Z,101513.59
2023-02-01T04:33:58.781Z,101513.41
2023-02-01T04:36:27.453Z,101519.44
2023-02-01T04:38:56.022Z,101515.19
2023-02-01T04:41:24.625Z,101520.91
2023-02-01T04:43:54.563Z,101521.09
2023-02-01T04:46:24.009Z,101520.13
2023-02-01T04:48:52.614Z,101529.19
2023-02-01T04:51:21.218Z,101516.16
2023-02-01T04:53:49.824Z,101521.19
2023-02-01T04:56:18.405Z,101522.00
2023-02-01T04:58:46.982Z,101519.47
2023-02-01T05:01:17.016Z,101525.78
2023-02-01T05:03:45.612Z,101530.66
2023-02-01T05:06:14.211Z,101530.63
2023-02-01T05:08:42.761Z,101515.25
2023-02-01T05:11:31.943Z,101525.09
2023-02-01T05:14:01.420Z,101519.50
2023-02-01T05:16:32.266Z,101515.78
2023-02-01T05:19:00.876Z,101507.38
2023-02-01T05:21:29.507Z,101517.59
2023-02-01T05:24:20.973Z,101523.94
2023-02-01T05:26:49.722Z,101519.75
2023-02-01T05:29:19.593Z,101523.91
2023-02-01T05:31:50.176Z,101522.63
2023-02-01T05:34:18.887Z,101530.31
2023-02-01T05:36:47.527Z,101511.03
2023-02-01T05:39:16.103Z,101503.94
2023-02-01T05:41:44.704Z,101509.25
2023-02-01T05:44:13.686Z,101504.41
2023-02-01T05:46:42.324Z,101520.28
2023-02-01T05:49:12.501Z,101524.97
2023-02-01T05:51:41.075Z,101506.28
2023-02-01T05:54:11.809Z,101518.44
2023-02-01T05:56:41.843Z,101509.66
2023-02-01T05:59:11.037Z,101497.91
2023-02-01T06:01:39.633Z,101498.66
2023-02-01T06:04:08.366Z,101504.03
2023-02-01T06:06:38.853Z,101505.94
2023-02-01T06:09:07.446Z,101495.13
2023-02-01T06:11:36.063Z,101502.22
2023-02-01T06:14:04.633Z,101522.91
2023-02-01T06:16:33.828Z,101517.34
2023-02-01T06:19:02.404Z,101516.72
2023-02-01T06:21:31.043Z,101520.53
2023-02-01T06:24:01.113Z,101520.06
2023-02-01T06:26:30.222Z,101513.38
2023-02-01T06:28:58.898Z,101520.53
2023-02-01T06:31:27.666Z,101528.63
2023-02-01T06:33:56.397Z,101527.84
2023-02-01T06:36:25.329Z,101533.63
2023-02-01T06:38:54.151Z,101528.09
2023-02-01T06:41:24.073Z,101527.81
2023-02-01T06:43:52.651Z,101526.50
2023-02-01T06:46:21.253Z,101526.72
2023-02-01T06:48:51.378Z,101520.09
2023-02-01T06:51:25.035Z,101522.56
2023-02-01T06:53:53.909Z,101535.69
2023-02-01T06:56:24.029Z,101530.22
2023-02-01T06:58:52.895Z,101533.16
2023-02-01T07:01:21.636Z,101536.00
2023-02-01T07:03:52.087Z,101540.44
2023-02-01T07:06:21.603Z,101538.97
2023-02-01T07:08:50.616Z,101541.47
2023-02-01T07:11:20.799Z,101546.19
2023-02-01T07:13:51.397Z,101545.38
2023-02-01T07:16:21.939Z,101545.53
2023-02-01T07:18:52.022Z,101555.09
2023-02-01T07:21:20.733Z,101547.56
2023-02-01T07:23:49.406Z,101545.69
2023-02-01T07:26:18.448Z,101547.09
2023-02-01T07:28:47.822Z,101543.44
2023-02-01T07:31:21.951Z,101547.69
2023-02-01T07:33:52.580Z,101542.72
2023-02-01T07:36:21.738Z,101542.06
2023-02-01T07:38:50.409Z,101559.16
2023-02-01T07:41:19.490Z,101544.09
2023-02-01T07:43:48.151Z,101556.84
2023-02-01T07:46:18.117Z,101554.44
2023-02-01T07:48:46.775Z,101544.09
2023-02-01T07:51:17.144Z,101547.16
2023-02-01T07:53:46.598Z,101544.75
2023-02-01T07:56:18.171Z,101547.59
2023-02-01T07:58:50.305Z,101555.56
2023-02-01T08:01:25.523Z,101561.28
2023-02-01T08:03:55.828Z,101561.25
2023-02-01T08:06:25.814Z,101555.84
2023-02-01T08:08:55.498Z,101564.56
2023-02-01T08:11:25.554Z,101576.91
2023-02-01T08:13:55.103Z,101571.47
2023-02-01T08:16:26.214Z,101565.50
2023-02-01T08:18:55.513Z,101575.13
2023-02-01T08:21:26.129Z,101568.41
2023-02-01T08:23:55.012Z,101591.50
2023-02-01T08:26:26.029Z,101596.41
2023-02-01T08:28:56.707Z,101594.63
2023-02-01T08:31:28.535Z,101589.75
2023-02-01T08:33:59.069Z,101597.19
2023-02-01T08:36:29.343Z,101603.09
2023-02-01T08:38:58.776Z,101606.91
2023-02-01T08:41:29.736Z,101608.25
2023-02-01T08:43:59.058Z,101613.50
2023-02-01T08:46:29.258Z,101609.78
2023-02-01T08:48:58.589Z,101616.97
2023-02-01T08:51:27.199Z,101610.94
2023-02-01T08:53:55.755Z,101619.66
2023-02-01T08:56:24.370Z,101600.53
2023-02-01T08:58:53.149Z,101608.88
2023-02-01T09:01:21.782Z,101600.72
2023-02-01T09:03:51.924Z,101609.59
2023-02-01T09:06:20.533Z,101602.88
2023-02-01T09:08:49.091Z,101610.84
2023-02-01T09:11:20.409Z,101587.13
2023-02-01T09:13:52.942Z,101588.44
2023-02-01T09:16:21.672Z,101589.81
2023-02-01T09:18:56.675Z,101591.72
2023-02-01T09:21:36.840Z,101583.28
2023-02-01T09:24:05.964Z,101577.59
2023-02-01T09:26:34.970Z,101585.75
2023-02-01T09:29:04.485Z,101588.78
2023-02-01T09:31:33.389Z,101585.94
2023-02-01T09:34:03.526Z,101568.34
2023-02-01T09:36:32.131Z,101579.97
2023-02-01T09:39:01.996Z,101565.41
2023-02-01T09:41:40.214Z,101568.25
2023-02-01T09:44:21.035Z,101575.19
2023-02-01T09:46:52.333Z,101569.66
2023-02-01T09:49:28.392Z,101574.06
2023-02-01T09:51:58.068Z,101569.59
2023-02-01T09:54:30.897Z,101574.72
2023-02-01T09:57:06.436Z,101583.16
2023-02-01T09:59:41.641Z,101565.44
2023-02-01T10:02:17.302Z,101578.53
2023-02-01T10:04:48.813Z,101574.31
2023-02-01T10:07:28.913Z,101568.63
2023-02-01T10:10:05.253Z,101566.44
2023-02-01T10:13:13.990Z,101576.47
2023-02-01T10:16:01.452Z,101570.72
2023-02-01T10:18:57.185Z,101570.44
2023-02-01T10:21:50.055Z,101566.47
2023-02-01T10:24:41.051Z,101552.38
2023-02-01T10:27:21.452Z,101550.38
2023-02-01T10:29:56.147Z,101549.72
2023-02-01T10:32:31.048Z,101551.50
2023-02-01T10:35:01.771Z,101574.97
2023-02-01T10:37:34.196Z,101563.41
2023-02-01T10:40:13.963Z,101564.47
2023-02-01T10:42:42.887Z,101571.59
2023-02-01T10:45:19.459Z,101571.88
2023-02-01T10:47:50.076Z,101562.22
2023-02-01T10:50:26.627Z,101562.97
2023-02-01T10:53:02.551Z,101561.34
2023-02-01T10:55:36.357Z,101559.66
2023-02-01T10:58:06.423Z,101552.19
2023-02-01T11:00:45.317Z,101558.97
2023-02-01T11:03:44.352Z,101552.19
2023-02-01T11:06:25.088Z,101555.56
2023-02-01T11:08:56.737Z,101540.72
2023-02-01T11:11:26.147Z,101551.47
2023-02-01T11:13:58.050Z,101526.97
2023-02-01T11:16:35.181Z,101530.34
2023-02-01T11:19:04.648Z,101528.97
2023-02-01T11:21:33.973Z,101523.78
2023-02-01T11:24:07.809Z,101532.31
2023-02-01T11:26:42.273Z,101527.31
2023-02-01T11:29:18.638Z,101525.03
2023-02-01T11:31:48.637Z,101519.22
2023-02-01T11:34:20.697Z,101514.09
2023-02-01T11:36:51.475Z,101492.09
2023-02-01T11:39:30.720Z,101488.09
2023-02-01T11:42:06.928Z,101501.19
2023-02-01T11:44:38.635Z,101499.59
2023-02-01T11:47:32.504Z,101498.59
2023-02-01T11:50:03.759Z,101499.50
2023-02-01T11:52:56.925Z,101496.88
2023-02-01T11:55:54.734Z,101486.25
2023-02-01T11:58:43.672Z,101476.91
2023-02-01T12:01:25.223Z,101482.47
2023-02-01T12:04:15.292Z,101470.63
2023-02-01T12:06:51.748Z,101482.13
2023-02-01T12:09:36.119Z,101472.81
2023-02-01T12:12:16.353Z,101473.44
2023-02-01T12:15:25.174Z,101476.13
2023-02-01T12:18:12.930Z,101461.69
2023-02-01T12:21:04.360Z,101459.88
2023-02-01T12:23:52.127Z,101456.44
2023-02-01T12:26:55.670Z,101456.13
2023-02-01T12:29:53.220Z,101454.16
2023-02-01T12:32:49.382Z,101456.13
2023-02-01T12:35:46.439Z,101450.72
2023-02-01T12:38:35.619Z,101446.25
2023-02-01T12:41:48.063Z,101440.91
2023-02-01T12:44:34.849Z,101434.38
2023-02-01T12:47:10.017Z,101430.06
2023-02-01T12:49:47.516Z,101432.13
2023-02-01T12:52:20.843Z,101436.41
2023-02-01T12:54:54.550Z,101438.63
2023-02-01T12:57:28.876Z,101433.97
2023-02-01T13:00:03.622Z,101431.75
2023-02-01T13:02:40.260Z,101425.72
2023-02-01T13:05:20.394Z,101423.28
2023-02-01T13:07:54.999Z,101423.66
2023-02-01T13:10:31.156Z,101420.09
2023-02-01T13:13:04.144Z,101422.47
2023-02-01T13:15:40.039Z,101428.41
2023-02-01T13:18:16.849Z,101420.38
2023-02-01T13:20:51.445Z,101422.28
2023-02-01T13:23:27.881Z,101435.28
2023-02-01T13:25:57.511Z,101424.53
2023-02-01T13:28:30.805Z,101421.69
2023-02-01T13:31:13.065Z,101419.69
2023-02-01T13:33:58.834Z,101423.38
2023-02-01T13:36:49.636Z,101422.34
2023-02-01T13:39:59.855Z,101425.72
2023-02-01T13:42:31.361Z,101411.22
2023-02-01T13:45:02.854Z,101417.63
2023-02-01T13:47:34.301Z,101430.19
2023-02-01T13:50:15.756Z,101420.06
2023-02-01T13:52:47.530Z,101416.19
2023-02-01T13:55:32.952Z,101414.94
2023-02-01T13:58:15.609Z,101417.69
2023-02-01T14:00:45.993Z,101416.78
2023-02-01T14:03:19.046Z,101417.63
2023-02-01T14:06:35.010Z,101426.72
2023-02-01T14:09:38.170Z,101427.94
2023-02-01T14:12:46.634Z,101423.97
2023-02-01T14:15:25.037Z,101434.22
2023-02-01T14:17:54.322Z,101428.97
2023-02-01T14:20:50.098Z,101435.56
2023-02-01T14:23:25.672Z,101446.59
2023-02-01T14:26:09.274Z,101439.72
2023-02-01T14:28:42.575Z,101434.94
2023-02-01T14:31:45.759Z,101439.44
2023-02-01T14:34:21.396Z,101453.13
2023-02-01T14:36:56.712Z,101441.81
2023-02-01T14:39:31.004Z,101444.75
2023-02-01T14:42:03.761Z,101454.56
2023-02-01T14:44:35.687Z,101449.38
2023-02-01T14:47:10.744Z,101450.13
2023-02-01T14:49:45.110Z,101442.13
2023-02-01T14:52:18.991Z,101453.28
2023-02-01T14:54:55.349Z,101455.22
2023-02-01T14:57:29.053Z,101448.88
2023-02-01T15:00:09.822Z,101458.69
2023-02-01T15:02:41.230Z,101446.13
2023-02-01T15:05:26.272Z,101459.78
2023-02-01T15:07:55.493Z,101459.66
2023-02-01T15:10:26.356Z,101460.78
2023-02-01T15:12:54.955Z,101468.97
2023-02-01T15:15:26.024Z,101457.19
2023-02-01T15:17:56.461Z,101467.63
2023-02-01T15:20:28.044Z,101465.09
2023-02-01T15:22:59.172Z,101470.06
2023-02-01T15:25:31.290Z,101463.19
2023-02-01T15:28:00.140Z,101464.59
2023-02-01T15:30:30.491Z,101456.97
2023-02-01T15:33:08.651Z,101453.72
2023-02-01T15:35:44.817Z,101463.34
2023-02-01T15:38:32.959Z,101459.72
2023-02-01T15:41:06.565Z,101441.44
2023-02-01T15:43:38.462Z,101447.31
2023-02-01T15:46:12.927Z,101447.97
2023-02-01T15:48:46.984Z,101443.00
2023-02-01T15:51:19.282Z,101457.66
2023-02-01T15:53:52.335Z,101461.56
2023-02-01T15:56:27.692Z,101464.16
2023-02-01T15:59:00.090Z,101458.16
2023-02-01T16:01:28.831Z,101446.97
2023-02-01T16:04:17.720Z,101464.44
2023-02-01T16:06:52.518Z,101463.72
2023-02-01T16:09:22.915Z,101472.69
2023-02-01T16:11:57.597Z,101466.31
2023-02-01T16:14:26.929Z,101464.16
2023-02-01T16:16:57.742Z,101474.59
2023-02-01T16:19:29.348Z,101457.09
2023-02-01T16:21:59.895Z,101470.59
2023-02-01T16:24:28.908Z,101476.25
2023-02-01T16:26:59.030Z,101484.31
2023-02-01T16:29:27.622Z,101477.03
2023-02-01T16:31:56.367Z,101486.19
2023-02-01T16:34:25.036Z,101485.63
2023-02-01T16:36:56.551Z,101490.81
2023-02-01T16:39:25.668Z,101500.41
2023-02-01T16:41:54.224Z,101501.34
2023-02-01T16:44:24.218Z,101496.75
2023-02-01T16:46:53.291Z,101494.38
2023-02-01T16:49:24.504Z,101499.31
2023-02-01T16:51:56.701Z,101501.47
2023-02-01T16:54:25.363Z,101508.53
2023-02-01T16:56:55.319Z,101506.56
2023-02-01T16:59:25.299Z,101514.94
2023-02-01T17:01:53.846Z,101519.13
2023-02-01T17:04:22.994Z,101521.94
2023-02-01T17:06:51.667Z,101508.97
2023-02-01T17:09:21.876Z,101513.41
2023-02-01T17:11:50.484Z,101518.97
2023-02-01T17:14:22.499Z,101521.94
2023-02-01T17:16:53.402Z,101523.63
2023-02-01T17:19:25.329Z,101522.50
2023-02-01T17:21:56.780Z,101530.03
2023-02-01T17:24:35.795Z,101534.84
2023-02-01T17:27:08.327Z,101540.13
2023-02-01T17:29:36.948Z,101532.66
2023-02-01T17:32:07.377Z,101531.22
2023-02-01T17:34:35.974Z,101537.72
2023-02-01T17:37:07.753Z,101539.63
2023-02-01T17:39:53.991Z,101543.06
2023-02-01T17:42:23.357Z,101538.34
2023-02-01T17:44:54.149Z,101542.22
2023-02-01T17:47:24.160Z,101543.06
2023-02-01T17:49:56.642Z,101540.97
2023-02-01T17:52:27.094Z,101533.16
2023-02-01T17:54:55.705Z,101526.44
2023-02-01T17:57:24.313Z,101536.25
2023-02-01T17:59:52.922Z,101537.44
2023-02-01T18:02:24.675Z,101528.81
2023-02-01T18:04:53.425Z,101525.84
2023-02-01T18:07:21.979Z,101535.28
2023-02-01T18:09:50.633Z,101523.50
2023-02-01T18:12:23.002Z,101536.88
2023-02-01T18:14:51.582Z,101524.69
2023-02-01T18:17:20.202Z,101528.06
2023-02-01T18:19:50.121Z,101529.19
2023-02-01T18:22:21.221Z,101523.94
2023-02-01T18:24:49.818Z,101536.50
2023-02-01T18:27:18.405Z,101538.03
2023-02-01T18:29:46.952Z,101540.13
2023-02-01T18:32:16.051Z,101555.34
2023-02-01T18:34:44.596Z,101548.03
2023-02-01T18:37:14.518Z,101546.78
2023-02-01T18:39:43.074Z,101559.34
2023-02-01T18:42:12.027Z,101551.38
2023-02-01T18:44:40.558Z,101540.97
2023-02-01T18:47:09.060Z,101552.47
2023-02-01T18:49:37.971Z,101561.13
2023-02-01T18:52:07.582Z,101560.28
2023-02-01T18:54:40.344Z,101559.53
2023-02-01T18:57:15.566Z,101560.97
2023-02-01T18:59:44.029Z,101556.66
2023-02-01T19:02:14.957Z,101564.28
2023-02-01T19:04:43.442Z,101567.63
2023-02-01T19:07:12.084Z,101569.94
2023-02-01T19:09:41.984Z,101577.34
2023-02-01T19:12:10.566Z,101556.25
2023-02-01T19:14:39.069Z,101549.78
2023-02-01T19:17:07.536Z,101558.28
2023-02-01T19:19:37.948Z,101544.88
2023-02-01T19:22:06.406Z,101543.47
2023-02-01T19:24:34.930Z,101543.78
2023-02-01T19:27:04.768Z,101542.47
2023-02-01T19:29:33.329Z,101532.69
2023-02-01T19:32:01.915Z,101540.91
2023-02-01T19:34:30.703Z,101529.06
2023-02-01T19:36:59.201Z,101530.88
2023-02-01T19:39:27.775Z,101536.38
2023-02-01T19:41:57.885Z,101523.84
2023-02-01T19:44:29.064Z,101535.66
2023-02-01T19:46:57.591Z,101533.00
2023-02-01T19:49:26.064Z,101525.22
2023-02-01T19:51:54.587Z,101523.44
2023-02-01T19:54:23.128Z,101522.09
2023-02-01T19:56:51.874Z,101527.38
2023-02-01T19:59:22.869Z,101534.69
2023-02-01T20:01:52.822Z,101518.06
2023-02-01T20:04:21.961Z,101520.28
2023-02-01T20:06:51.036Z,101521.38
2023-02-01T20:09:20.206Z,101509.50
2023-02-01T20:11:49.237Z,101506.81
2023-02-01T20:14:18.072Z,101493.75
2023-02-01T20:16:46.542Z,101515.59
2023-02-01T20:19:16.766Z,101559.31
2023-02-01T20:21:45.359Z,101567.44
2023-02-01T20:24:16.876Z,101572.91
2023-02-01T20:26:46.880Z,101588.13
2023-02-01T20:29:15.748Z,101562.97
2023-02-01T20:31:45.199Z,101568.72
2023-02-01T20:34:16.072Z,101562.03
2023-02-01T20:36:44.565Z,101564.56
2023-02-01T20:39:13.051Z,101566.97
2023-02-01T20:41:41.599Z,101545.88
2023-02-01T20:44:10.316Z,101551.84
2023-02-01T20:46:38.822Z,101555.50
2023-02-01T20:49:07.307Z,101541.88
2023-02-01T20:51:37.155Z,101552.34
2023-02-01T20:54:05.805Z,101556.53
2023-02-01T20:56:34.344Z,101569.41
2023-02-01T20:59:04.010Z,101552.38
2023-02-01T21:01:32.768Z,101561.50
2023-02-01T21:04:01.392Z,101561.84
2023-02-01T21:06:29.884Z,101560.69
2023-02-01T21:08:59.709Z,101563.34
2023-02-01T21:11:28.211Z,101568.72
2023-02-01T21:13:58.240Z,101568.53
2023-02-01T21:16:26.805Z,101570.16
2023-02-01T21:18:55.480Z,101582.66
2023-02-01T21:21:24.031Z,101577.56
2023-02-01T21:23:53.243Z,101579.03
2023-02-01T21:26:24.585Z,101579.47
2023-02-01T21:28:54.538Z,101579.34
2023-02-01T21:31:25.792Z,101579.94
2023-02-01T21:33:54.379Z,101584.06
2023-02-01T21:36:23.444Z,101581.75
2023-02-01T21:38:55.173Z,101592.13
2023-02-01T21:41:43.850Z,101596.41
2023-02-01T21:44:14.642Z,101590.84
2023-02-01T21:46:43.447Z,101588.22
2023-02-01T21:49:12.268Z,101595.06
2023-02-01T21:51:41.287Z,101601.78
2023-02-01T21:54:11.165Z,101592.34
2023-02-01T21:56:41.833Z,101605.06
2023-02-01T21:59:11.412Z,101602.53
2023-02-01T22:01:41.187Z,101615.56
2023-02-01T22:04:10.506Z,101613.06
2023-02-01T22:06:41.678Z,101608.69
2023-02-01T22:09:16.553Z,101618.94
2023-02-01T22:11:46.836Z,101618.59
2023-02-01T22:14:15.682Z,101620.06
2023-02-01T22:16:44.376Z,101609.84
2023-02-01T22:19:13.502Z,101618.00
2023-02-01T22:21:43.275Z,101610.91
2023-02-01T22:24:12.870Z,101620.91
2023-02-01T22:26:41.800Z,101620.78
2023-02-01T22:29:14.687Z,101620.75
2023-02-01T22:31:43.389Z,101610.69
2023-02-01T22:34:12.602Z,101618.47
2023-02-01T22:36:41.852Z,101622.97
2023-02-01T22:39:10.713Z,101614.94
2023-02-01T22:41:39.261Z,101613.38
2023-02-01T22:44:08.046Z,101619.47
2023-02-01T22:46:37.863Z,101613.97
2023-02-01T22:49:06.350Z,101611.19
2023-02-01T22:51:35.315Z,101629.44
2023-02-01T22:54:03.852Z,101630.97
2023-02-01T22:56:34.702Z,101634.41
2023-02-01T22:59:04.810Z,101648.69
2023-02-01T23:01:34.206Z,101638.63
2023-02-01T23:04:06.351Z,101641.06
2023-02-01T23:06:35.891Z,101658.25
2023-02-01T23:09:11.165Z,101660.06
2023-02-01T23:11:40.308Z,101655.03
2023-02-01T23:14:09.621Z,101652.50
2023-02-01T23:16:39.165Z,101654.09
2023-02-01T23:19:09.389Z,101664.25
2023-02-01T23:21:37.894Z,101662.97
2023-02-01T23:24:08.359Z,101668.66
2023-02-01T23:26:38.102Z,101668.31
2023-02-01T23:29:06.753Z,101664.44
2023-02-01T23:31:36.404Z,101661.22
2023-02-01T23:34:08.104Z,101670.03
2023-02-01T23:36:36.549Z,101664.94
2023-02-01T23:39:05.028Z,101663.78
2023-02-01T23:41:33.472Z,101671.63
2023-02-01T23:44:01.149Z,101666.63
2023-02-01T23:46:32.814Z,101668.56
2023-02-01T23:49:02.768Z,101665.44
2023-02-01T23:51:32.998Z,101666.13
2023-02-01T23:54:02.059Z,101673.75
2023-02-01T23:56:33.135Z,101665.97
2023-02-01T23:59:02.704Z,101665.91
